sensor_id;sensor_type;location;lat;lon;timestamp;temperature;humidity
19968;DHT22;10145;49.152;9.282;2023-09-30T00:01:00;16.70;99.90
19968;DHT22;10145;49.152;9.282;2023-09-30T00:03:26;16.60;99.90
19968;DHT22;10145;49.152;9.282;2023-09-30T00:05:51;16.60;99.90
19968;DHT22;10145;49.152;9.282;2023-09-30T00:08:17;16.50;99.90
19968;DHT22;10145;49.152;9.282;2023-09-30T00:10:42;16.50;99.90
19968;DHT22;10145;49.152;9.282;2023-09-30T00:13:08;16.50;99.90
19968;DHT22;10145;49.152;9.282;2023-09-30T00:15:34;16.50;99.90
19968;DHT22;10145;49.152;9.282;2023-09-30T00:17:59;16.40;99.90
19968;DHT22;10145;49.152;9.282;2023-09-30T00:20:29;16.40;99.90
19968;DHT22;10145;49.152;9.282;2023-09-30T00:22:55;16.40;99.90
19968;DHT22;10145;49.152;9.282;2023-09-30T00:27:48;16.40;99.90
19968;DHT22;10145;49.152;9.282;2023-09-30T00:30:14;16.50;99.90
19968;DHT22;10145;49.152;9.282;2023-09-30T00:32:40;16.60;99.90
19968;DHT22;10145;49.152;9.282;2023-09-30T00:35:06;16.50;99.90
19968;DHT22;10145;49.152;9.282;2023-09-30T00:37:38;16.50;99.90
19968;DHT22;10145;49.152;9.282;2023-09-30T00:40:05;16.50;99.90
19968;DHT22;10145;49.152;9.282;2023-09-30T00:42:31;16.50;99.90
19968;DHT22;10145;49.152;9.282;2023-09-30T00:44:56;16.60;99.90
19968;DHT22;10145;49.152;9.282;2023-09-30T00:47:23;16.50;99.90
19968;DHT22;10145;49.152;9.282;2023-09-30T00:49:50;16.60;99.90
19968;DHT22;10145;49.152;9.282;2023-09-30T00:52:16;16.50;99.90
19968;DHT22;10145;49.152;9.282;2023-09-30T00:54:43;16.50;99.90
19968;DHT22;10145;49.152;9.282;2023-09-30T00:57:09;16.50;99.90
19968;DHT22;10145;49.152;9.282;2023-09-30T00:59:36;16.40;99.90
19968;DHT22;10145;49.152;9.282;2023-09-30T01:02:03;16.50;99.90
19968;DHT22;10145;49.152;9.282;2023-09-30T01:04:31;16.30;99.90
19968;DHT22;10145;49.152;9.282;2023-09-30T01:06:56;16.30;99.90
19968;DHT22;10145;49.152;9.282;2023-09-30T01:09:25;16.30;99.90
19968;DHT22;10145;49.152;9.282;2023-09-30T01:11:51;16.30;99.90
19968;DHT22;10145;49.152;9.282;2023-09-30T01:14:26;16.30;99.90
19968;DHT22;10145;49.152;9.282;2023-09-30T01:16:53;16.20;99.90
19968;DHT22;10145;49.152;9.282;2023-09-30T01:19:18;16.20;99.90
19968;DHT22;10145;49.152;9.282;2023-09-30T01:21:44;16.20;99.90
19968;DHT22;10145;49.152;9.282;2023-09-30T01:24:14;16.10;99.90
19968;DHT22;10145;49.152;9.282;2023-09-30T01:26:39;16.10;99.90
19968;DHT22;10145;49.152;9.282;2023-09-30T01:29:05;16.00;99.90
19968;DHT22;10145;49.152;9.282;2023-09-30T01:31:30;16.00;99.90
19968;DHT22;10145;49.152;9.282;2023-09-30T01:33:56;16.00;99.90
19968;DHT22;10145;49.152;9.282;2023-09-30T01:36:22;16.00;99.90
19968;DHT22;10145;49.152;9.282;2023-09-30T01:38:47;16.00;99.90
19968;DHT22;10145;49.152;9.282;2023-09-30T01:41:13;15.90;99.90
19968;DHT22;10145;49.152;9.282;2023-09-30T01:43:38;15.90;99.90
19968;DHT22;10145;49.152;9.282;2023-09-30T01:46:04;15.90;99.90
19968;DHT22;10145;49.152;9.282;2023-09-30T01:48:31;15.90;99.90
19968;DHT22;10145;49.152;9.282;2023-09-30T01:50:57;15.80;99.90
19968;DHT22;10145;49.152;9.282;2023-09-30T01:53:23;15.80;99.90
19968;DHT22;10145;49.152;9.282;2023-09-30T01:55:48;15.80;99.90
19968;DHT22;10145;49.152;9.282;2023-09-30T01:58:14;15.80;99.90
19968;DHT22;10145;49.152;9.282;2023-09-30T02:00:39;15.70;99.90
19968;DHT22;10145;49.152;9.282;2023-09-30T02:03:05;15.70;99.90
19968;DHT22;10145;49.152;9.282;2023-09-30T02:05:31;15.70;99.90
19968;DHT22;10145;49.152;9.282;2023-09-30T02:07:56;15.60;99.90
19968;DHT22;10145;49.152;9.282;2023-09-30T02:10:22;15.60;99.90
19968;DHT22;10145;49.152;9.282;2023-09-30T02:12:47;15.60;99.90
19968;DHT22;10145;49.152;9.282;2023-09-30T02:15:14;15.60;99.90
19968;DHT22;10145;49.152;9.282;2023-09-30T02:17:39;15.60;99.90
19968;DHT22;10145;49.152;9.282;2023-09-30T02:20:06;15.60;99.90
19968;DHT22;10145;49.152;9.282;2023-09-30T02:22:38;15.60;99.90
19968;DHT22;10145;49.152;9.282;2023-09-30T02:25:04;15.50;99.90
19968;DHT22;10145;49.152;9.282;2023-09-30T02:27:32;15.50;99.90
19968;DHT22;10145;49.152;9.282;2023-09-30T02:29:58;15.50;99.90
19968;DHT22;10145;49.152;9.282;2023-09-30T02:32:23;15.40;99.90
19968;DHT22;10145;49.152;9.282;2023-09-30T02:34:49;15.40;99.90
19968;DHT22;10145;49.152;9.282;2023-09-30T02:37:16;15.50;99.90
19968;DHT22;10145;49.152;9.282;2023-09-30T02:39:43;15.40;99.90
19968;DHT22;10145;49.152;9.282;2023-09-30T02:42:10;15.40;99.90
19968;DHT22;10145;49.152;9.282;2023-09-30T02:44:35;15.40;99.90
19968;DHT22;10145;49.152;9.282;2023-09-30T02:47:01;15.30;99.90
19968;DHT22;10145;49.152;9.282;2023-09-30T02:49:26;15.30;99.90
19968;DHT22;10145;49.152;9.282;2023-09-30T02:51:53;15.20;99.90
19968;DHT22;10145;49.152;9.282;2023-09-30T02:54:18;15.10;99.90
19968;DHT22;10145;49.152;9.282;2023-09-30T02:56:44;15.10;99.90
19968;DHT22;10145;49.152;9.282;2023-09-30T02:59:12;15.00;99.90
19968;DHT22;10145;49.152;9.282;2023-09-30T03:01:38;15.00;99.90
19968;DHT22;10145;49.152;9.282;2023-09-30T03:04:03;15.00;99.90
19968;DHT22;10145;49.152;9.282;2023-09-30T03:06:33;14.90;99.90
19968;DHT22;10145;49.152;9.282;2023-09-30T03:09:00;14.90;99.90
19968;DHT22;10145;49.152;9.282;2023-09-30T03:11:27;14.80;99.90
19968;DHT22;10145;49.152;9.282;2023-09-30T03:13:53;14.80;99.90
19968;DHT22;10145;49.152;9.282;2023-09-30T03:16:20;14.70;99.90
19968;DHT22;10145;49.152;9.282;2023-09-30T03:18:46;14.70;99.90
19968;DHT22;10145;49.152;9.282;2023-09-30T03:21:15;14.70;99.90
19968;DHT22;10145;49.152;9.282;2023-09-30T03:23:41;14.70;99.90
19968;DHT22;10145;49.152;9.282;2023-09-30T03:26:07;14.70;99.90
19968;DHT22;10145;49.152;9.282;2023-09-30T03:28:36;14.80;99.90
19968;DHT22;10145;49.152;9.282;2023-09-30T03:31:05;14.80;99.90
19968;DHT22;10145;49.152;9.282;2023-09-30T03:33:32;14.80;99.90
19968;DHT22;10145;49.152;9.282;2023-09-30T03:35:59;14.80;99.90
19968;DHT22;10145;49.152;9.282;2023-09-30T03:38:25;14.80;99.90
19968;DHT22;10145;49.152;9.282;2023-09-30T03:40:51;14.90;99.90
19968;DHT22;10145;49.152;9.282;2023-09-30T03:43:19;14.90;99.90
19968;DHT22;10145;49.152;9.282;2023-09-30T03:45:45;14.80;99.90
19968;DHT22;10145;49.152;9.282;2023-09-30T03:48:11;14.80;99.90
19968;DHT22;10145;49.152;9.282;2023-09-30T03:50:37;14.80;99.90
19968;DHT22;10145;49.152;9.282;2023-09-30T03:53:04;14.80;99.90
19968;DHT22;10145;49.152;9.282;2023-09-30T03:55:32;14.70;99.90
19968;DHT22;10145;49.152;9.282;2023-09-30T03:57:59;14.80;99.90
19968;DHT22;10145;49.152;9.282;2023-09-30T04:00:24;14.70;99.90
19968;DHT22;10145;49.152;9.282;2023-09-30T04:02:51;14.60;99.90
19968;DHT22;10145;49.152;9.282;2023-09-30T04:05:20;14.60;99.90
19968;DHT22;10145;49.152;9.282;2023-09-30T04:07:51;14.50;99.90
19968;DHT22;10145;49.152;9.282;2023-09-30T04:10:17;14.50;99.90
19968;DHT22;10145;49.152;9.282;2023-09-30T04:12:43;14.30;99.90
19968;DHT22;10145;49.152;9.282;2023-09-30T04:15:09;14.30;99.90
19968;DHT22;10145;49.152;9.282;2023-09-30T04:17:37;14.20;99.90
19968;DHT22;10145;49.152;9.282;2023-09-30T04:20:05;14.10;99.90
19968;DHT22;10145;49.152;9.282;2023-09-30T04:22:34;14.00;99.90
19968;DHT22;10145;49.152;9.282;2023-09-30T04:25:01;13.90;99.90
19968;DHT22;10145;49.152;9.282;2023-09-30T04:27:27;13.80;99.90
19968;DHT22;10145;49.152;9.282;2023-09-30T04:29:53;13.80;99.90
19968;DHT22;10145;49.152;9.282;2023-09-30T04:32:19;13.70;99.90
19968;DHT22;10145;49.152;9.282;2023-09-30T04:34:45;13.60;99.90
19968;DHT22;10145;49.152;9.282;2023-09-30T04:37:12;13.50;99.90
19968;DHT22;10145;49.152;9.282;2023-09-30T04:39:39;13.50;99.90
19968;DHT22;10145;49.152;9.282;2023-09-30T04:42:04;13.40;99.90
19968;DHT22;10145;49.152;9.282;2023-09-30T04:44:30;13.30;99.90
19968;DHT22;10145;49.152;9.282;2023-09-30T04:46:57;13.20;99.90
19968;DHT22;10145;49.152;9.282;2023-09-30T04:49:23;13.10;99.90
19968;DHT22;10145;49.152;9.282;2023-09-30T04:51:50;13.00;99.90
19968;DHT22;10145;49.152;9.282;2023-09-30T04:54:15;12.90;99.90
19968;DHT22;10145;49.152;9.282;2023-09-30T04:56:41;12.90;99.90
19968;DHT22;10145;49.152;9.282;2023-09-30T04:59:06;12.70;99.90
19968;DHT22;10145;49.152;9.282;2023-09-30T05:01:32;12.70;99.90
19968;DHT22;10145;49.152;9.282;2023-09-30T05:03:58;12.60;99.90
19968;DHT22;10145;49.152;9.282;2023-09-30T05:06:24;12.60;99.90
19968;DHT22;10145;49.152;9.282;2023-09-30T05:08:50;12.50;99.90
19968;DHT22;10145;49.152;9.282;2023-09-30T05:11:15;12.50;99.90
19968;DHT22;10145;49.152;9.282;2023-09-30T05:13:41;12.40;99.90
19968;DHT22;10145;49.152;9.282;2023-09-30T05:16:07;12.40;99.90
19968;DHT22;10145;49.152;9.282;2023-09-30T05:18:35;12.30;99.90
19968;DHT22;10145;49.152;9.282;2023-09-30T05:21:02;12.30;99.90
19968;DHT22;10145;49.152;9.282;2023-09-30T05:23:27;12.20;99.90
19968;DHT22;10145;49.152;9.282;2023-09-30T05:25:53;12.20;99.90
19968;DHT22;10145;49.152;9.282;2023-09-30T05:28:20;12.20;99.90
19968;DHT22;10145;49.152;9.282;2023-09-30T05:30:46;12.20;99.90
19968;DHT22;10145;49.152;9.282;2023-09-30T05:33:11;12.20;99.90
19968;DHT22;10145;49.152;9.282;2023-09-30T05:35:40;12.20;99.90
19968;DHT22;10145;49.152;9.282;2023-09-30T05:38:07;12.20;99.90
19968;DHT22;10145;49.152;9.282;2023-09-30T05:40:33;12.20;99.90
19968;DHT22;10145;49.152;9.282;2023-09-30T05:42:59;12.20;99.90
19968;DHT22;10145;49.152;9.282;2023-09-30T05:45:26;12.20;99.90
19968;DHT22;10145;49.152;9.282;2023-09-30T05:47:55;12.20;99.90
19968;DHT22;10145;49.152;9.282;2023-09-30T05:50:22;12.30;99.90
19968;DHT22;10145;49.152;9.282;2023-09-30T05:52:52;12.30;99.90
19968;DHT22;10145;49.152;9.282;2023-09-30T05:55:18;12.40;99.90
19968;DHT22;10145;49.152;9.282;2023-09-30T05:57:48;12.50;99.90
19968;DHT22;10145;49.152;9.282;2023-09-30T06:00:15;12.60;99.90
19968;DHT22;10145;49.152;9.282;2023-09-30T06:02:58;12.60;99.90
19968;DHT22;10145;49.152;9.282;2023-09-30T06:05:24;12.80;99.90
19968;DHT22;10145;49.152;9.282;2023-09-30T06:07:52;12.90;99.90
19968;DHT22;10145;49.152;9.282;2023-09-30T06:10:19;13.10;99.90
19968;DHT22;10145;49.152;9.282;2023-09-30T06:12:50;13.40;99.90
19968;DHT22;10145;49.152;9.282;2023-09-30T06:15:20;13.50;99.90
19968;DHT22;10145;49.152;9.282;2023-09-30T06:17:48;13.60;99.90
19968;DHT22;10145;49.152;9.282;2023-09-30T06:20:14;13.70;99.90
19968;DHT22;10145;49.152;9.282;2023-09-30T06:22:46;13.80;99.90
19968;DHT22;10145;49.152;9.282;2023-09-30T06:25:14;13.80;99.90
19968;DHT22;10145;49.152;9.282;2023-09-30T06:27:45;13.80;99.90
19968;DHT22;10145;49.152;9.282;2023-09-30T06:30:12;13.90;99.90
19968;DHT22;10145;49.152;9.282;2023-09-30T06:32:38;13.90;99.90
19968;DHT22;10145;49.152;9.282;2023-09-30T06:35:05;14.00;99.90
19968;DHT22;10145;49.152;9.282;2023-09-30T06:37:32;14.10;99.90
19968;DHT22;10145;49.152;9.282;2023-09-30T06:39:58;14.20;99.90
19968;DHT22;10145;49.152;9.282;2023-09-30T06:42:24;14.30;99.90
19968;DHT22;10145;49.152;9.282;2023-09-30T06:44:50;14.40;99.90
19968;DHT22;10145;49.152;9.282;2023-09-30T06:47:15;14.50;99.90
19968;DHT22;10145;49.152;9.282;2023-09-30T06:49:41;14.50;99.90
19968;DHT22;10145;49.152;9.282;2023-09-30T06:52:07;14.60;99.90
19968;DHT22;10145;49.152;9.282;2023-09-30T06:54:33;14.60;99.90
19968;DHT22;10145;49.152;9.282;2023-09-30T06:56:58;14.60;99.90
19968;DHT22;10145;49.152;9.282;2023-09-30T06:59:24;14.60;99.90
19968;DHT22;10145;49.152;9.282;2023-09-30T07:01:50;14.70;99.90
19968;DHT22;10145;49.152;9.282;2023-09-30T07:04:16;14.60;99.90
19968;DHT22;10145;49.152;9.282;2023-09-30T07:06:42;14.70;99.90
19968;DHT22;10145;49.152;9.282;2023-09-30T07:09:07;14.80;99.90
19968;DHT22;10145;49.152;9.282;2023-09-30T07:11:34;14.90;99.90
19968;DHT22;10145;49.152;9.282;2023-09-30T07:14:01;14.90;99.90
19968;DHT22;10145;49.152;9.282;2023-09-30T07:16:26;15.00;99.90
19968;DHT22;10145;49.152;9.282;2023-09-30T07:18:52;15.20;99.90
19968;DHT22;10145;49.152;9.282;2023-09-30T07:21:17;15.20;99.90
19968;DHT22;10145;49.152;9.282;2023-09-30T07:23:43;15.40;99.90
19968;DHT22;10145;49.152;9.282;2023-09-30T07:26:09;15.40;99.90
19968;DHT22;10145;49.152;9.282;2023-09-30T07:28:34;15.40;99.90
19968;DHT22;10145;49.152;9.282;2023-09-30T07:31:00;15.50;99.90
19968;DHT22;10145;49.152;9.282;2023-09-30T07:33:26;15.50;99.90
19968;DHT22;10145;49.152;9.282;2023-09-30T07:35:51;15.50;99.90
19968;DHT22;10145;49.152;9.282;2023-09-30T07:38:17;15.60;99.90
19968;DHT22;10145;49.152;9.282;2023-09-30T07:40:43;15.60;99.90
19968;DHT22;10145;49.152;9.282;2023-09-30T07:43:09;15.60;99.90
19968;DHT22;10145;49.152;9.282;2023-09-30T07:45:35;15.70;99.90
19968;DHT22;10145;49.152;9.282;2023-09-30T07:48:01;15.90;99.90
19968;DHT22;10145;49.152;9.282;2023-09-30T07:50:30;16.00;99.90
19968;DHT22;10145;49.152;9.282;2023-09-30T07:52:55;16.20;99.90
19968;DHT22;10145;49.152;9.282;2023-09-30T07:55:21;16.40;99.90
19968;DHT22;10145;49.152;9.282;2023-09-30T07:57:46;16.30;99.90
19968;DHT22;10145;49.152;9.282;2023-09-30T08:00:12;16.10;99.90
19968;DHT22;10145;49.152;9.282;2023-09-30T08:02:41;16.30;99.90
19968;DHT22;10145;49.152;9.282;2023-09-30T08:05:08;16.30;99.90
19968;DHT22;10145;49.152;9.282;2023-09-30T08:07:34;16.50;99.90
19968;DHT22;10145;49.152;9.282;2023-09-30T08:10:00;16.60;99.90
19968;DHT22;10145;49.152;9.282;2023-09-30T08:12:25;16.70;99.90
19968;DHT22;10145;49.152;9.282;2023-09-30T08:14:51;16.90;99.90
19968;DHT22;10145;49.152;9.282;2023-09-30T08:17:17;17.10;99.90
19968;DHT22;10145;49.152;9.282;2023-09-30T08:19:44;17.20;99.90
19968;DHT22;10145;49.152;9.282;2023-09-30T08:22:09;17.30;99.90
19968;DHT22;10145;49.152;9.282;2023-09-30T08:24:35;17.30;99.90
19968;DHT22;10145;49.152;9.282;2023-09-30T08:27:01;17.60;99.90
19968;DHT22;10145;49.152;9.282;2023-09-30T08:29:27;17.70;99.90
19968;DHT22;10145;49.152;9.282;2023-09-30T08:31:52;17.90;99.90
19968;DHT22;10145;49.152;9.282;2023-09-30T08:34:18;18.10;99.90
19968;DHT22;10145;49.152;9.282;2023-09-30T08:36:46;18.30;99.90
19968;DHT22;10145;49.152;9.282;2023-09-30T08:39:12;18.50;99.90
19968;DHT22;10145;49.152;9.282;2023-09-30T08:41:38;18.70;99.90
19968;DHT22;10145;49.152;9.282;2023-09-30T08:44:04;18.80;99.90
19968;DHT22;10145;49.152;9.282;2023-09-30T08:46:34;18.90;99.90
19968;DHT22;10145;49.152;9.282;2023-09-30T08:49:05;18.90;99.90
19968;DHT22;10145;49.152;9.282;2023-09-30T08:51:35;18.90;99.90
19968;DHT22;10145;49.152;9.282;2023-09-30T08:54:01;18.80;99.90
19968;DHT22;10145;49.152;9.282;2023-09-30T08:56:30;18.80;99.90
19968;DHT22;10145;49.152;9.282;2023-09-30T08:58:59;18.90;99.90
19968;DHT22;10145;49.152;9.282;2023-09-30T09:01:26;19.10;99.90
19968;DHT22;10145;49.152;9.282;2023-09-30T09:03:52;19.10;99.90
19968;DHT22;10145;49.152;9.282;2023-09-30T09:06:25;19.30;99.90
19968;DHT22;10145;49.152;9.282;2023-09-30T09:08:51;19.20;99.90
19968;DHT22;10145;49.152;9.282;2023-09-30T09:11:17;18.80;99.90
19968;DHT22;10145;49.152;9.282;2023-09-30T09:13:50;18.50;99.90
19968;DHT22;10145;49.152;9.282;2023-09-30T09:16:18;18.60;99.90
19968;DHT22;10145;49.152;9.282;2023-09-30T09:18:44;18.60;99.90
19968;DHT22;10145;49.152;9.282;2023-09-30T09:21:17;18.50;99.90
19968;DHT22;10145;49.152;9.282;2023-09-30T09:23:43;18.70;99.90
19968;DHT22;10145;49.152;9.282;2023-09-30T09:26:10;18.70;99.90
19968;DHT22;10145;49.152;9.282;2023-09-30T09:28:37;18.80;99.90
19968;DHT22;10145;49.152;9.282;2023-09-30T09:31:20;18.70;99.90
19968;DHT22;10145;49.152;9.282;2023-09-30T09:33:46;18.70;99.90
19968;DHT22;10145;49.152;9.282;2023-09-30T09:36:12;18.70;99.90
19968;DHT22;10145;49.152;9.282;2023-09-30T09:38:50;18.70;99.90
19968;DHT22;10145;49.152;9.282;2023-09-30T09:41:19;18.70;99.90
19968;DHT22;10145;49.152;9.282;2023-09-30T09:43:48;19.00;99.90
19968;DHT22;10145;49.152;9.282;2023-09-30T09:46:16;19.40;99.90
19968;DHT22;10145;49.152;9.282;2023-09-30T09:48:42;19.60;99.90
19968;DHT22;10145;49.152;9.282;2023-09-30T09:51:10;19.80;99.90
19968;DHT22;10145;49.152;9.282;2023-09-30T09:53:39;20.10;99.90
19968;DHT22;10145;49.152;9.282;2023-09-30T09:56:08;20.30;99.90
19968;DHT22;10145;49.152;9.282;2023-09-30T09:58:36;20.50;99.90
19968;DHT22;10145;49.152;9.282;2023-09-30T10:01:07;20.20;99.90
19968;DHT22;10145;49.152;9.282;2023-09-30T10:03:35;20.40;99.90
19968;DHT22;10145;49.152;9.282;2023-09-30T10:06:01;20.80;99.90
19968;DHT22;10145;49.152;9.282;2023-09-30T10:08:39;21.00;99.90
19968;DHT22;10145;49.152;9.282;2023-09-30T10:11:06;21.20;99.90
19968;DHT22;10145;49.152;9.282;2023-09-30T10:13:51;21.40;99.90
19968;DHT22;10145;49.152;9.282;2023-09-30T10:19:21;21.40;99.90
19968;DHT22;10145;49.152;9.282;2023-09-30T10:24:55;21.20;99.90
19968;DHT22;10145;49.152;9.282;2023-09-30T10:29:48;20.70;99.90
19968;DHT22;10145;49.152;9.282;2023-09-30T10:32:14;20.60;99.90
19968;DHT22;10145;49.152;9.282;2023-09-30T10:34:50;21.00;99.90
19968;DHT22;10145;49.152;9.282;2023-09-30T10:37:24;20.90;99.90
19968;DHT22;10145;49.152;9.282;2023-09-30T10:39:59;21.10;99.90
19968;DHT22;10145;49.152;9.282;2023-09-30T10:42:49;21.10;99.90
19968;DHT22;10145;49.152;9.282;2023-09-30T10:45:47;20.90;99.90
19968;DHT22;10145;49.152;9.282;2023-09-30T10:50:56;20.80;99.90
19968;DHT22;10145;49.152;9.282;2023-09-30T10:53:24;21.20;99.90
19968;DHT22;10145;49.152;9.282;2023-09-30T10:56:00;21.70;99.90
19968;DHT22;10145;49.152;9.282;2023-09-30T11:01:06;22.30;99.90
19968;DHT22;10145;49.152;9.282;2023-09-30T11:03:33;22.40;99.90
19968;DHT22;10145;49.152;9.282;2023-09-30T11:05:58;22.60;99.90
19968;DHT22;10145;49.152;9.282;2023-09-30T11:08:27;22.50;99.90
19968;DHT22;10145;49.152;9.282;2023-09-30T11:10:53;22.10;99.90
19968;DHT22;10145;49.152;9.282;2023-09-30T11:13:20;22.10;99.90
19968;DHT22;10145;49.152;9.282;2023-09-30T11:15:46;22.00;99.90
19968;DHT22;10145;49.152;9.282;2023-09-30T11:18:16;22.10;99.90
19968;DHT22;10145;49.152;9.282;2023-09-30T11:20:44;21.60;99.90
19968;DHT22;10145;49.152;9.282;2023-09-30T11:23:13;21.20;99.90
19968;DHT22;10145;49.152;9.282;2023-09-30T11:25:39;20.90;99.90
19968;DHT22;10145;49.152;9.282;2023-09-30T11:28:17;20.90;99.90
19968;DHT22;10145;49.152;9.282;2023-09-30T11:30:57;21.10;99.90
19968;DHT22;10145;49.152;9.282;2023-09-30T11:33:23;21.50;99.90
19968;DHT22;10145;49.152;9.282;2023-09-30T11:36:05;21.60;99.90
19968;DHT22;10145;49.152;9.282;2023-09-30T11:38:32;21.80;99.90
19968;DHT22;10145;49.152;9.282;2023-09-30T11:40:59;21.70;99.70
19968;DHT22;10145;49.152;9.282;2023-09-30T11:43:28;21.20;99.90
19968;DHT22;10145;49.152;9.282;2023-09-30T11:46:07;21.20;99.90
19968;DHT22;10145;49.152;9.282;2023-09-30T11:48:37;21.30;99.90
19968;DHT22;10145;49.152;9.282;2023-09-30T11:51:03;21.30;99.90
19968;DHT22;10145;49.152;9.282;2023-09-30T11:53:34;21.30;99.90
19968;DHT22;10145;49.152;9.282;2023-09-30T11:56:01;21.10;99.90
19968;DHT22;10145;49.152;9.282;2023-09-30T11:58:32;21.00;99.90
19968;DHT22;10145;49.152;9.282;2023-09-30T12:00:58;21.10;99.90
19968;DHT22;10145;49.152;9.282;2023-09-30T12:03:25;21.40;99.90
19968;DHT22;10145;49.152;9.282;2023-09-30T12:05:53;21.20;99.90
19968;DHT22;10145;49.152;9.282;2023-09-30T12:08:23;21.00;99.90
19968;DHT22;10145;49.152;9.282;2023-09-30T12:10:49;20.90;98.60
19968;DHT22;10145;49.152;9.282;2023-09-30T12:13:15;21.00;99.40
19968;DHT22;10145;49.152;9.282;2023-09-30T12:15:41;21.10;99.90
19968;DHT22;10145;49.152;9.282;2023-09-30T12:18:08;21.40;99.90
19968;DHT22;10145;49.152;9.282;2023-09-30T12:20:35;21.60;99.30
19968;DHT22;10145;49.152;9.282;2023-09-30T12:23:01;21.60;98.60
19968;DHT22;10145;49.152;9.282;2023-09-30T12:25:27;22.00;97.70
19968;DHT22;10145;49.152;9.282;2023-09-30T12:27:53;22.10;98.30
19968;DHT22;10145;49.152;9.282;2023-09-30T12:30:21;22.40;96.10
19968;DHT22;10145;49.152;9.282;2023-09-30T12:32:47;22.40;95.50
19968;DHT22;10145;49.152;9.282;2023-09-30T12:35:12;22.40;96.50
19968;DHT22;10145;49.152;9.282;2023-09-30T12:37:38;22.80;96.80
19968;DHT22;10145;49.152;9.282;2023-09-30T12:40:06;23.00;96.00
19968;DHT22;10145;49.152;9.282;2023-09-30T12:42:33;23.20;96.60
19968;DHT22;10145;49.152;9.282;2023-09-30T12:45:01;23.60;95.60
19968;DHT22;10145;49.152;9.282;2023-09-30T12:47:26;24.00;95.80
19968;DHT22;10145;49.152;9.282;2023-09-30T12:49:52;24.20;94.90
19968;DHT22;10145;49.152;9.282;2023-09-30T12:52:20;24.10;94.40
19968;DHT22;10145;49.152;9.282;2023-09-30T12:54:45;23.80;94.80
19968;DHT22;10145;49.152;9.282;2023-09-30T12:57:11;23.90;95.30
19968;DHT22;10145;49.152;9.282;2023-09-30T12:59:39;24.10;93.40
19968;DHT22;10145;49.152;9.282;2023-09-30T13:02:04;24.10;93.40
19968;DHT22;10145;49.152;9.282;2023-09-30T13:04:31;23.90;92.60
19968;DHT22;10145;49.152;9.282;2023-09-30T13:06:56;23.70;92.90
19968;DHT22;10145;49.152;9.282;2023-09-30T13:09:22;23.90;93.10
19968;DHT22;10145;49.152;9.282;2023-09-30T13:11:48;23.90;93.20
19968;DHT22;10145;49.152;9.282;2023-09-30T13:14:14;23.90;92.70
19968;DHT22;10145;49.152;9.282;2023-09-30T13:16:39;23.60;92.30
19968;DHT22;10145;49.152;9.282;2023-09-30T13:19:05;23.50;93.00
19968;DHT22;10145;49.152;9.282;2023-09-30T13:21:31;23.40;92.30
19968;DHT22;10145;49.152;9.282;2023-09-30T13:23:56;23.20;93.30
19968;DHT22;10145;49.152;9.282;2023-09-30T13:26:22;22.90;92.90
19968;DHT22;10145;49.152;9.282;2023-09-30T13:28:47;22.80;93.90
19968;DHT22;10145;49.152;9.282;2023-09-30T13:31:13;22.80;93.30
19968;DHT22;10145;49.152;9.282;2023-09-30T13:33:38;22.90;94.00
19968;DHT22;10145;49.152;9.282;2023-09-30T13:36:04;22.70;93.00
19968;DHT22;10145;49.152;9.282;2023-09-30T13:38:30;22.70;93.60
19968;DHT22;10145;49.152;9.282;2023-09-30T13:40:56;22.60;92.80
19968;DHT22;10145;49.152;9.282;2023-09-30T13:43:21;22.30;93.60
19968;DHT22;10145;49.152;9.282;2023-09-30T13:45:47;22.30;93.20
19968;DHT22;10145;49.152;9.282;2023-09-30T13:48:13;22.00;93.20
19968;DHT22;10145;49.152;9.282;2023-09-30T13:50:39;22.20;92.60
19968;DHT22;10145;49.152;9.282;2023-09-30T13:53:05;22.20;92.60
19968;DHT22;10145;49.152;9.282;2023-09-30T13:55:30;22.20;92.20
19968;DHT22;10145;49.152;9.282;2023-09-30T13:57:56;22.10;92.20
19968;DHT22;10145;49.152;9.282;2023-09-30T14:00:22;22.50;92.30
19968;DHT22;10145;49.152;9.282;2023-09-30T14:02:48;22.70;91.30
19968;DHT22;10145;49.152;9.282;2023-09-30T14:05:13;22.80;91.90
19968;DHT22;10145;49.152;9.282;2023-09-30T14:07:39;22.80;91.30
19968;DHT22;10145;49.152;9.282;2023-09-30T14:10:08;22.70;93.50
19968;DHT22;10145;49.152;9.282;2023-09-30T14:12:36;22.90;91.90
19968;DHT22;10145;49.152;9.282;2023-09-30T14:15:01;23.20;92.00
19968;DHT22;10145;49.152;9.282;2023-09-30T14:17:27;23.20;90.50
19968;DHT22;10145;49.152;9.282;2023-09-30T14:19:52;23.40;89.50
19968;DHT22;10145;49.152;9.282;2023-09-30T14:22:19;23.20;90.60
19968;DHT22;10145;49.152;9.282;2023-09-30T14:24:44;23.50;90.00
19968;DHT22;10145;49.152;9.282;2023-09-30T14:27:10;23.60;90.80
19968;DHT22;10145;49.152;9.282;2023-09-30T14:29:36;23.60;90.00
19968;DHT22;10145;49.152;9.282;2023-09-30T14:32:01;23.40;90.60
19968;DHT22;10145;49.152;9.282;2023-09-30T14:34:27;22.90;90.50
19968;DHT22;10145;49.152;9.282;2023-09-30T14:36:53;22.40;91.10
19968;DHT22;10145;49.152;9.282;2023-09-30T14:39:19;22.20;91.10
19968;DHT22;10145;49.152;9.282;2023-09-30T14:41:45;22.10;91.60
19968;DHT22;10145;49.152;9.282;2023-09-30T14:44:11;22.10;92.40
19968;DHT22;10145;49.152;9.282;2023-09-30T14:46:37;22.80;91.00
19968;DHT22;10145;49.152;9.282;2023-09-30T14:49:04;23.30;88.70
19968;DHT22;10145;49.152;9.282;2023-09-30T14:51:31;24.00;88.50
19968;DHT22;10145;49.152;9.282;2023-09-30T14:53:57;24.70;89.20
19968;DHT22;10145;49.152;9.282;2023-09-30T14:56:22;25.10;86.50
19968;DHT22;10145;49.152;9.282;2023-09-30T14:58:48;24.70;85.20
19968;DHT22;10145;49.152;9.282;2023-09-30T15:01:14;24.70;87.80
19968;DHT22;10145;49.152;9.282;2023-09-30T15:03:39;24.30;87.40
19968;DHT22;10145;49.152;9.282;2023-09-30T15:06:05;24.30;85.80
19968;DHT22;10145;49.152;9.282;2023-09-30T15:08:32;24.10;87.30
19968;DHT22;10145;49.152;9.282;2023-09-30T15:11:01;24.00;87.90
19968;DHT22;10145;49.152;9.282;2023-09-30T15:13:27;23.80;88.60
19968;DHT22;10145;49.152;9.282;2023-09-30T15:15:53;23.00;89.90
19968;DHT22;10145;49.152;9.282;2023-09-30T15:18:19;22.80;89.10
19968;DHT22;10145;49.152;9.282;2023-09-30T15:20:44;22.50;90.90
19968;DHT22;10145;49.152;9.282;2023-09-30T15:23:12;22.10;92.30
19968;DHT22;10145;49.152;9.282;2023-09-30T15:25:45;21.80;93.00
19968;DHT22;10145;49.152;9.282;2023-09-30T15:28:11;21.60;92.50
19968;DHT22;10145;49.152;9.282;2023-09-30T15:30:38;21.40;93.80
19968;DHT22;10145;49.152;9.282;2023-09-30T15:33:04;21.10;93.50
19968;DHT22;10145;49.152;9.282;2023-09-30T15:35:29;20.90;94.20
19968;DHT22;10145;49.152;9.282;2023-09-30T15:37:56;20.80;93.60
19968;DHT22;10145;49.152;9.282;2023-09-30T15:40:22;20.90;93.30
19968;DHT22;10145;49.152;9.282;2023-09-30T15:42:48;20.70;93.80
19968;DHT22;10145;49.152;9.282;2023-09-30T15:45:13;20.60;94.00